createdAt,value
2023-03-06T00:02:23.951Z,93751.47
2023-03-06T00:07:25.222Z,93741.53
2023-03-06T00:12:26.464Z,93748.78
2023-03-06T00:17:27.748Z,93738.47
2023-03-06T00:22:29.060Z,93735.06
2023-03-06T00:27:30.334Z,93751.88
2023-03-06T00:32:31.602Z,93744.25
2023-03-06T00:37:32.883Z,93739.28
2023-03-06T00:42:34.128Z,93745.00
2023-03-06T00:47:35.419Z,93740.03
2023-03-06T00:52:36.708Z,93741.97
2023-03-06T00:57:37.959Z,93740.44
2023-03-06T01:02:39.251Z,93737.00
2023-03-06T01:07:40.523Z,93730.50
2023-03-06T01:12:41.761Z,93722.47
2023-03-06T01:17:43.058Z,93726.69
2023-03-06T01:22:44.324Z,93722.88
2023-03-06T01:27:45.530Z,93721.34
2023-03-06T01:32:46.830Z,93723.63
2023-03-06T01:37:48.130Z,93727.44
2023-03-06T01:42:49.430Z,93720.97
2023-03-06T01:47:50.775Z,93709.88
2023-03-06T01:52:52.091Z,93718.66
2023-03-06T01:57:53.397Z,93711.03
2023-03-06T02:02:54.640Z,93720.19
2023-03-06T02:07:55.899Z,93721.72
2023-03-06T02:12:57.216Z,93719.41
2023-03-06T02:17:58.475Z,93714.44
2023-03-06T02:22:59.775Z,93722.84
2023-03-06T02:28:01.086Z,93723.22
2023-03-06T02:33:02.363Z,93728.19
2023-03-06T02:38:03.665Z,93727.03
2023-03-06T02:43:04.904Z,93722.81
2023-03-06T02:48:06.219Z,93727.03
2023-03-06T02:53:07.537Z,93722.06
2023-03-06T02:58:08.840Z,93726.63
2023-03-06T03:03:10.165Z,93723.59
2023-03-06T03:08:11.466Z,93730.06
2023-03-06T03:13:12.752Z,93735.00
2023-03-06T03:18:14.015Z,93728.91
2023-03-06T03:23:15.283Z,93727.38
2023-03-06T03:28:16.610Z,93734.63
2023-03-06T03:33:17.915Z,93727.38
2023-03-06T03:38:19.207Z,93726.63
2023-03-06T03:43:20.452Z,93740.00
2023-03-06T03:48:21.710Z,93741.53
2023-03-06T03:53:23.132Z,93743.44
2023-03-06T03:58:24.437Z,93757.97
2023-03-06T04:03:25.764Z,93765.59
2023-03-06T04:08:27.013Z,93767.50
2023-03-06T04:13:28.287Z,93765.59
2023-03-06T04:18:29.644Z,93778.97
2023-03-06T04:23:30.931Z,93774.38
2023-03-06T04:28:32.269Z,93783.56
2023-03-06T04:33:33.634Z,93782.81
2023-03-06T04:38:35.026Z,93769.84
2023-03-06T04:43:36.382Z,93780.94
2023-03-06T04:48:37.717Z,93777.88
2023-03-06T04:53:39.349Z,93788.56
2023-03-06T04:58:40.657Z,93793.53
2023-03-06T05:03:41.991Z,93792.41
2023-03-06T05:08:43.425Z,93785.16
2023-03-06T05:13:44.752Z,93781.31
2023-03-06T05:18:46.176Z,93797.75
2023-03-06T05:23:47.612Z,93805.78
2023-03-06T05:28:48.937Z,93795.84
2023-03-06T05:33:50.340Z,93792.78
2023-03-06T05:38:51.719Z,93796.22
2023-03-06T05:43:53.084Z,93798.53
2023-03-06T05:48:54.459Z,93811.88
2023-03-06T05:53:55.853Z,93816.47
2023-03-06T05:58:57.233Z,93822.59
2023-03-06T06:03:58.633Z,93825.25
2023-03-06T06:08:59.958Z,93830.22
2023-03-06T06:14:01.283Z,93838.59
2023-03-06T06:19:02.584Z,93832.88
2023-03-06T06:24:03.950Z,93847.38
2023-03-06T06:29:05.269Z,93848.91
2023-03-06T06:34:06.576Z,93843.88
2023-03-06T06:39:07.832Z,93836.28
2023-03-06T06:44:09.095Z,93839.31
2023-03-06T06:49:10.381Z,93853.81
2023-03-06T06:54:11.663Z,93860.69
2023-03-06T06:59:17.524Z,93859.16
2023-03-06T07:04:18.952Z,93858.78
2023-03-06T07:09:20.251Z,93857.59
2023-03-06T07:14:21.591Z,93861.44
2023-03-06T07:19:22.873Z,93861.44
2023-03-06T07:24:24.203Z,93865.28
2023-03-06T07:29:25.495Z,93866.88
2023-03-06T07:34:26.835Z,93870.72
2023-03-06T07:39:28.189Z,93871.88
2023-03-06T07:44:29.487Z,93876.88
2023-03-06T07:49:30.824Z,93871.50
2023-03-06T07:54:32.139Z,93871.16
2023-03-06T07:59:33.375Z,93871.91
2023-03-06T08:04:34.673Z,93872.69
2023-03-06T08:09:35.997Z,93873.81
2023-03-06T08:14:37.259Z,93871.53
2023-03-06T08:19:38.504Z,93878.06
2023-03-06T08:24:39.801Z,93857.78
2023-03-06T08:29:41.120Z,93866.19
2023-03-06T08:34:42.394Z,93862.38
2023-03-06T08:39:43.697Z,93863.91
2023-03-06T08:44:45.004Z,93863.53
2023-03-06T08:49:46.314Z,93865.06
2023-03-06T08:54:47.629Z,93862.00
2023-03-06T08:59:48.995Z,93850.53
2023-03-06T09:04:50.360Z,93855.88
2023-03-06T09:09:51.655Z,93851.31
2023-03-06T09:14:52.992Z,93848.25
2023-03-06T09:19:54.252Z,93854.34
2023-03-06T09:24:55.515Z,93850.16
2023-03-06T09:29:56.766Z,93842.50
2023-03-06T09:34:58.045Z,93849.78
2023-03-06T09:39:59.370Z,93848.22
2023-03-06T09:45:00.669Z,93831.78
2023-03-06T09:50:01.921Z,93835.63
2023-03-06T09:55:03.285Z,93833.34
2023-03-06T10:00:04.739Z,93826.84
2023-03-06T10:05:06.209Z,93821.47
2023-03-06T10:10:07.632Z,93812.69
2023-03-06T10:15:08.947Z,93809.63
2023-03-06T10:20:10.237Z,93807.72
2023-03-06T10:25:11.500Z,93800.06
2023-03-06T10:30:12.766Z,93811.16
2023-03-06T10:35:14.035Z,93796.63
2023-03-06T10:40:15.345Z,93785.16
2023-03-06T10:45:16.736Z,93784.41
2023-03-06T10:50:18.040Z,93782.47
2023-03-06T10:55:19.348Z,93764.16
2023-03-06T11:00:20.755Z,93763.41
2023-03-06T11:05:22.117Z,93754.22
2023-03-06T11:10:23.455Z,93751.16
2023-03-06T11:15:24.807Z,93743.13
2023-03-06T11:20:26.166Z,93736.28
2023-03-06T11:25:27.477Z,93719.09
2023-03-06T11:30:28.801Z,93712.59
2023-03-06T11:35:30.087Z,93697.69
2023-03-06T11:40:31.346Z,93703.03
2023-03-06T11:45:32.610Z,93695.41
2023-03-06T11:50:33.924Z,93686.63
2023-03-06T11:55:35.304Z,93687.00
2023-03-06T12:00:36.672Z,93661.00
2023-03-06T12:05:38.028Z,93673.25
2023-03-06T12:10:39.505Z,93659.88
2023-03-06T12:15:40.804Z,93662.56
2023-03-06T12:20:42.125Z,93655.66
2023-03-06T12:25:43.429Z,93646.91
2023-03-06T12:30:44.751Z,93642.31
2023-03-06T12:35:46.048Z,93651.47
2023-03-06T12:40:47.313Z,93646.53
2023-03-06T12:45:48.594Z,93637.72
2023-03-06T12:50:49.908Z,93631.25
2023-03-06T12:55:51.189Z,93628.56
2023-03-06T13:00:55.349Z,93619.78
2023-03-06T13:05:59.936Z,93617.50
2023-03-06T13:11:01.250Z,93605.66
2023-03-06T13:16:02.561Z,93590.00
2023-03-06T13:21:03.848Z,93597.66
2023-03-06T13:26:05.124Z,93576.63
2023-03-06T13:31:10.582Z,93608.34
2023-03-06T13:36:14.004Z,93602.22
2023-03-06T13:41:15.348Z,93601.47
2023-03-06T13:46:16.640Z,93610.63
2023-03-06T13:51:17.971Z,93601.09
2023-03-06T13:56:19.304Z,93592.28
2023-03-06T14:01:20.652Z,93596.88
2023-03-06T14:06:22.032Z,93599.91
2023-03-06T14:11:23.321Z,93588.09
2023-03-06T14:16:24.775Z,93583.50
2023-03-06T14:21:26.123Z,93590.00
2023-03-06T14:26:27.412Z,93584.66
2023-03-06T14:31:28.688Z,93596.88
2023-03-06T14:36:30.120Z,93604.53
2023-03-06T14:41:31.424Z,93605.66
2023-03-06T14:46:32.781Z,93592.69
2023-03-06T14:51:34.105Z,93591.16
2023-03-06T14:56:35.410Z,93591.16
2023-03-06T15:01:36.770Z,93592.31
2023-03-06T15:06:38.234Z,93595.38
2023-03-06T15:11:39.667Z,93588.88
2023-03-06T15:16:40.996Z,93604.91
2023-03-06T15:21:42.333Z,93594.97
2023-03-06T15:26:43.581Z,93593.47
2023-03-06T15:31:44.890Z,93599.19
2023-03-06T15:36:46.276Z,93603.38
2023-03-06T15:41:47.534Z,93595.34
2023-03-06T15:46:51.846Z,93613.31
2023-03-06T15:51:55.182Z,93613.31
2023-03-06T15:56:56.484Z,93611.38
2023-03-06T16:01:57.818Z,93617.88
2023-03-06T16:06:59.126Z,93617.50
2023-03-06T16:12:00.439Z,93607.59
2023-03-06T16:17:01.778Z,93622.06
2023-03-06T16:22:03.089Z,93617.88
2023-03-06T16:27:04.417Z,93620.56
2023-03-06T16:32:05.733Z,93629.34
2023-03-06T16:37:07.091Z,93629.72
2023-03-06T16:42:08.409Z,93632.00
2023-03-06T16:47:09.672Z,93632.78
2023-03-06T16:52:10.983Z,93630.84
2023-03-06T16:57:12.236Z,93634.31
2023-03-06T17:02:13.548Z,93632.78
2023-03-06T17:07:14.972Z,93634.31
2023-03-06T17:12:16.257Z,93632.38
2023-03-06T17:17:17.555Z,93638.50
2023-03-06T17:22:18.916Z,93645.75
2023-03-06T17:27:20.264Z,93633.56
2023-03-06T17:32:21.720Z,93628.97
2023-03-06T17:37:23.494Z,93621.69
2023-03-06T17:42:25.139Z,93628.59
2023-03-06T17:47:26.473Z,93620.94
2023-03-06T17:52:27.751Z,93622.09
2023-03-06T17:57:28.998Z,93630.13
2023-03-06T18:02:30.239Z,93635.09
2023-03-06T18:07:31.543Z,93640.81
2023-03-06T18:12:32.908Z,93635.47
2023-03-06T18:17:34.216Z,93640.41
2023-03-06T18:22:35.524Z,93641.94
2023-03-06T18:27:36.774Z,93645.72
2023-03-06T18:32:38.143Z,93648.81
2023-03-06T18:37:39.407Z,93651.09
2023-03-06T18:42:40.749Z,93654.91
2023-03-06T18:47:42.058Z,93649.94
2023-03-06T18:52:43.362Z,93648.78
2023-03-06T18:57:44.680Z,93640.41
2023-03-06T19:02:45.988Z,93628.97
2023-03-06T19:07:47.425Z,93642.69
2023-03-06T19:12:48.721Z,93635.81
2023-03-06T19:17:49.985Z,93641.16
2023-03-06T19:22:51.381Z,93631.63
2023-03-06T19:27:53.338Z,93621.31
2023-03-06T19:32:54.877Z,93620.56
2023-03-06T19:37:56.196Z,93601.84
2023-03-06T19:42:57.459Z,93609.88
2023-03-06T19:47:58.739Z,93611.38
2023-03-06T19:53:00.110Z,93599.19
2023-03-06T19:58:01.436Z,93611.00
2023-03-06T20:03:02.816Z,93610.25
2023-03-06T20:08:04.179Z,93611.38
2023-03-06T20:13:05.564Z,93610.63
2023-03-06T20:18:06.915Z,93597.66
2023-03-06T20:23:08.369Z,93598.78
2023-03-06T20:28:09.696Z,93603.75
2023-03-06T20:33:11.273Z,93608.34
2023-03-06T20:38:13.986Z,93617.13
2023-03-06T20:43:15.608Z,93638.50
2023-03-06T20:48:17.202Z,93615.22
2023-03-06T20:53:19.218Z,93618.66
2023-03-06T20:58:21.274Z,93617.50
2023-03-06T21:03:23.188Z,93606.81
2023-03-06T21:08:24.614Z,93611.78
2023-03-06T21:13:26.529Z,93604.91
2023-03-06T21:18:29.544Z,93611.38
2023-03-06T21:23:31.061Z,93608.34
2023-03-06T21:28:32.798Z,93601.84
2023-03-06T21:33:35.272Z,93604.91
2023-03-06T21:38:37.012Z,93602.19
2023-03-06T21:43:38.472Z,93600.28
2023-03-06T21:48:39.836Z,93590.00
2023-03-06T21:53:41.186Z,93581.19
2023-03-06T21:58:42.536Z,93585.03
2023-03-06T22:03:44.056Z,93596.84
2023-03-06T22:08:45.995Z,93595.72
2023-03-06T22:13:47.711Z,93601.06
2023-03-06T22:18:49.439Z,93593.81
2023-03-06T22:23:50.935Z,93593.44
2023-03-06T22:28:53.505Z,93589.25
2023-03-06T22:33:56.637Z,93593.06
2023-03-06T22:38:58.407Z,93599.56
2023-03-06T22:44:00.425Z,93587.72
2023-03-06T22:49:03.396Z,93595.00
2023-03-06T22:54:06.011Z,93597.28
2023-03-06T22:59:07.876Z,93587.72
2023-03-06T23:04:10.171Z,93588.84
2023-03-06T23:09:12.088Z,93591.94
2023-03-06T23:14:13.761Z,93595.75
2023-03-06T23:19:15.285Z,93604.91
2023-03-06T23:24:17.762Z,93595.38
2023-03-06T23:29:19.492Z,93589.25
2023-03-06T23:34:22.208Z,93572.81
2023-03-06T23:39:24.444Z,93576.63
2023-03-06T23:44:25.895Z,93571.28
2023-03-06T23:49:27.553Z,93572.44
2023-03-06T23:54:29.023Z,93570.91
2023-03-06T23:59:30.456Z,93575.88
